createdAt,value
2023-03-17T00:00:50.687Z,101314.60
2023-03-17T00:05:55.700Z,101315.80
2023-03-17T00:10:55.070Z,101318.60
2023-03-17T00:16:01.211Z,101322.80
2023-03-17T00:21:01.098Z,101327.80
2023-03-17T00:26:00.518Z,101318.80
2023-03-17T00:31:02.817Z,101309.80
2023-03-17T00:36:03.230Z,101301.60
2023-03-17T00:41:03.277Z,101301.80
2023-03-17T00:46:03.297Z,101305.20
2023-03-17T00:51:01.851Z,101294.20
2023-03-17T00:56:00.991Z,101294.80
2023-03-17T01:01:01.023Z,101289.80
2023-03-17T01:06:00.555Z,101289.20
2023-03-17T01:10:59.843Z,101286.60
2023-03-17T01:15:59.571Z,101284.00
2023-03-17T01:20:58.781Z,101277.20
2023-03-17T01:25:58.819Z,101275.80
2023-03-17T01:30:58.855Z,101269.40
2023-03-17T01:35:58.144Z,101266.00
2023-03-17T01:40:57.649Z,101265.20
2023-03-17T01:46:37.644Z,101261.60
2023-03-17T01:51:44.524Z,101267.00
2023-03-17T01:56:49.186Z,101270.40
2023-03-17T02:01:54.225Z,101276.40
2023-03-17T02:06:58.449Z,101280.80
2023-03-17T02:11:59.958Z,101283.80
2023-03-17T02:17:00.018Z,101283.00
2023-03-17T02:22:01.046Z,101281.80
2023-03-17T02:27:05.790Z,101285.00
2023-03-17T02:32:05.586Z,101288.60
2023-03-17T02:37:04.967Z,101291.40
2023-03-17T02:42:05.470Z,101301.80
2023-03-17T02:47:07.597Z,101294.60
2023-03-17T02:52:07.515Z,101287.80
2023-03-17T02:57:07.671Z,101294.60
2023-03-17T03:02:07.094Z,101295.40
2023-03-17T03:07:06.461Z,101305.60
2023-03-17T03:12:06.221Z,101311.80
2023-03-17T03:17:05.973Z,101317.60
2023-03-17T03:22:05.237Z,101318.60
2023-03-17T03:27:04.861Z,101319.80
2023-03-17T03:32:04.718Z,101333.60
2023-03-17T03:37:03.638Z,101333.60
2023-03-17T03:42:02.658Z,101329.60
2023-03-17T03:47:02.788Z,101337.20
2023-03-17T03:52:01.993Z,101340.00
2023-03-17T03:57:01.193Z,101337.00
2023-03-17T04:02:00.366Z,101325.80
2023-03-17T04:07:00.260Z,101324.60
2023-03-17T04:11:59.630Z,101320.60
2023-03-17T04:16:58.506Z,101320.80
2023-03-17T04:21:57.761Z,101315.20
2023-03-17T04:26:57.549Z,101326.20
2023-03-17T04:31:57.196Z,101323.00
2023-03-17T04:36:56.571Z,101326.60
2023-03-17T04:41:55.996Z,101325.60
2023-03-17T04:46:54.854Z,101332.40
2023-03-17T04:51:53.875Z,101344.40
2023-03-17T04:56:53.495Z,101348.60
2023-03-17T05:01:53.733Z,101343.60
2023-03-17T05:06:53.256Z,101332.00
2023-03-17T05:11:53.065Z,101323.60
2023-03-17T05:16:53.726Z,101324.40
2023-03-17T05:21:52.742Z,101342.80
2023-03-17T05:26:51.774Z,101348.00
2023-03-17T05:31:51.087Z,101354.60
2023-03-17T05:36:50.576Z,101369.60
2023-03-17T05:41:50.508Z,101369.40
2023-03-17T05:46:49.747Z,101370.20
2023-03-17T05:51:49.076Z,101387.20
2023-03-17T05:56:48.136Z,101387.20
2023-03-17T06:01:47.735Z,101390.20
2023-03-17T06:06:46.978Z,101402.00
2023-03-17T06:11:46.199Z,101404.60
2023-03-17T06:16:45.231Z,101408.40
2023-03-17T06:21:44.276Z,101402.20
2023-03-17T06:26:44.063Z,101390.40
2023-03-17T06:31:50.590Z,101387.00
2023-03-17T06:36:51.127Z,101386.40
2023-03-17T06:41:51.206Z,101391.20
2023-03-17T06:46:51.387Z,101400.60
2023-03-17T06:51:51.651Z,101410.00
2023-03-17T06:56:51.139Z,101411.20
2023-03-17T07:01:52.172Z,101411.60
2023-03-17T07:06:51.688Z,101420.80
2023-03-17T07:11:51.818Z,101416.40
2023-03-17T07:16:52.635Z,101412.40
2023-03-17T07:21:51.473Z,101408.00
2023-03-17T07:26:51.049Z,101414.40
2023-03-17T07:31:50.738Z,101412.60
2023-03-17T07:36:49.456Z,101408.80
2023-03-17T07:41:53.233Z,101403.60
2023-03-17T07:46:53.067Z,101408.40
2023-03-17T07:51:52.490Z,101398.60
2023-03-17T07:56:51.729Z,101410.20
2023-03-17T08:01:51.032Z,101396.00
2023-03-17T08:06:50.597Z,101402.00
2023-03-17T08:11:49.862Z,101399.20
2023-03-17T08:16:48.764Z,101396.40
2023-03-17T08:21:47.521Z,101391.00
2023-03-17T08:26:49.146Z,101391.20
2023-03-17T08:31:48.367Z,101399.00
2023-03-17T08:36:47.948Z,101412.40
2023-03-17T08:41:47.228Z,101413.60
2023-03-17T08:46:47.338Z,101415.40
2023-03-17T08:51:49.036Z,101421.00
2023-03-17T08:56:48.987Z,101427.20
2023-03-17T09:01:49.124Z,101428.20
2023-03-17T09:07:02.380Z,101417.40
2023-03-17T09:12:03.270Z,101417.80
2023-03-17T09:17:05.408Z,101416.40
2023-03-17T09:22:07.026Z,101414.80
2023-03-17T09:27:07.119Z,101405.60
2023-03-17T09:32:06.288Z,101408.60
2023-03-17T09:37:05.573Z,101404.60
2023-03-17T09:42:26.416Z,101404.00
2023-03-17T09:47:50.164Z,101390.20
2023-03-17T09:52:51.551Z,101378.40
2023-03-17T09:57:55.940Z,101372.40
2023-03-17T10:02:55.794Z,101380.40
2023-03-17T10:08:19.083Z,101369.20
2023-03-17T10:13:47.327Z,101363.80
2023-03-17T10:18:53.242Z,101364.60
2023-03-17T10:23:54.541Z,101349.20
2023-03-17T10:28:54.432Z,101343.20
2023-03-17T10:33:55.761Z,101336.60
2023-03-17T10:38:57.254Z,101339.00
2023-03-17T10:43:59.676Z,101329.60
2023-03-17T10:49:08.415Z,101326.60
2023-03-17T10:54:19.204Z,101321.60
2023-03-17T10:59:28.972Z,101322.00
2023-03-17T11:04:42.691Z,101315.60
2023-03-17T11:09:42.741Z,101327.00
2023-03-17T11:14:46.049Z,101322.20
2023-03-17T11:19:56.032Z,101318.40
2023-03-17T11:25:10.230Z,101322.20
2023-03-17T11:30:24.548Z,101314.40
2023-03-17T11:41:19.961Z,101293.20
2023-03-17T11:46:27.696Z,101285.00
2023-03-17T11:51:37.751Z,101282.20
2023-03-17T11:56:48.308Z,101278.60
2023-03-17T12:01:59.818Z,101259.60
2023-03-17T12:07:09.597Z,101252.20
2023-03-17T12:12:13.818Z,101245.00
2023-03-17T12:17:26.838Z,101248.40
2023-03-17T12:22:38.528Z,101239.00
2023-03-17T12:27:51.837Z,101242.60
2023-03-17T12:33:00.724Z,101236.80
2023-03-17T12:38:03.112Z,101239.80
2023-03-17T12:43:30.801Z,101231.40
2023-03-17T12:49:05.154Z,101241.40
2023-03-17T12:54:04.763Z,101236.80
2023-03-17T12:59:10.235Z,101231.00
2023-03-17T13:04:32.734Z,101225.80
2023-03-17T13:10:10.514Z,101227.80
2023-03-17T13:15:32.154Z,101213.80
2023-03-17T13:20:44.777Z,101210.80
2023-03-17T13:25:55.452Z,101215.00
2023-03-17T13:31:16.348Z,101206.60
2023-03-17T13:36:34.793Z,101194.40
2023-03-17T13:42:15.792Z,101192.00
2023-03-17T13:47:42.164Z,101170.60
2023-03-17T13:52:50.580Z,101169.60
2023-03-17T13:58:23.910Z,101170.60
2023-03-17T14:03:35.632Z,101170.40
2023-03-17T14:08:39.407Z,101167.40
2023-03-17T14:13:50.044Z,101158.80
2023-03-17T14:18:55.527Z,101147.80
2023-03-17T14:24:01.684Z,101142.20
2023-03-17T14:29:05.696Z,101130.60
2023-03-17T14:34:05.622Z,101132.40
2023-03-17T14:39:04.580Z,101131.00
2023-03-17T14:44:04.639Z,101138.40
2023-03-17T14:49:15.894Z,101120.80
2023-03-17T14:54:23.152Z,101113.40
2023-03-17T14:59:29.197Z,101112.40
2023-03-17T15:04:31.544Z,101121.20
2023-03-17T15:09:36.414Z,101115.80
2023-03-17T15:14:40.405Z,101097.20
2023-03-17T15:19:45.188Z,101105.40
2023-03-17T15:24:45.554Z,101103.60
2023-03-17T15:29:45.037Z,101090.80
2023-03-17T15:34:45.265Z,101085.00
2023-03-17T15:39:47.640Z,101086.40
2023-03-17T15:44:46.542Z,101089.80
2023-03-17T15:49:46.781Z,101098.40
2023-03-17T15:54:46.447Z,101096.80
2023-03-17T15:59:46.688Z,101097.80
2023-03-17T16:04:46.336Z,101100.60
2023-03-17T16:09:47.083Z,101092.40
2023-03-17T16:14:47.473Z,101095.20
2023-03-17T16:19:46.709Z,101099.80
2023-03-17T16:24:45.993Z,101110.80
2023-03-17T16:29:45.794Z,101106.20
2023-03-17T16:34:45.758Z,101103.40
2023-03-17T16:39:45.300Z,101111.40
2023-03-17T16:44:45.486Z,101106.60
2023-03-17T16:49:44.439Z,101105.40
2023-03-17T16:54:44.558Z,101110.20
2023-03-17T16:59:44.193Z,101110.60
2023-03-17T17:04:43.925Z,101119.80
2023-03-17T17:09:43.052Z,101127.00
2023-03-17T17:14:45.706Z,101116.40
2023-03-17T17:19:45.664Z,101116.60
2023-03-17T17:24:44.666Z,101120.80
2023-03-17T17:29:44.488Z,101100.20
2023-03-17T17:34:43.404Z,101112.00
2023-03-17T17:39:42.916Z,101114.20
2023-03-17T17:44:42.900Z,101119.00
2023-03-17T17:49:43.317Z,101125.00
2023-03-17T17:54:42.317Z,101127.00
2023-03-17T17:59:41.667Z,101123.60
2023-03-17T18:04:40.477Z,101121.20
2023-03-17T18:09:39.563Z,101126.80
2023-03-17T18:14:38.922Z,101121.40
2023-03-17T18:19:38.735Z,101115.40
2023-03-17T18:24:38.030Z,101113.60
2023-03-17T18:29:37.450Z,101112.20
2023-03-17T18:34:43.576Z,101114.20
2023-03-17T18:39:44.500Z,101115.60
2023-03-17T18:44:44.439Z,101111.80
2023-03-17T18:49:47.248Z,101113.60
2023-03-17T18:54:49.220Z,101116.60
2023-03-17T18:59:48.779Z,101114.00
2023-03-17T19:04:47.925Z,101119.40
2023-03-17T19:09:47.174Z,101125.20
2023-03-17T19:14:46.374Z,101123.80
2023-03-17T19:19:45.668Z,101112.40
2023-03-17T19:24:46.101Z,101110.40
2023-03-17T19:29:45.160Z,101109.00
2023-03-17T19:34:44.558Z,101106.60
2023-03-17T19:39:45.569Z,101100.00
2023-03-17T19:44:44.886Z,101100.00
2023-03-17T19:49:43.696Z,101093.40
2023-03-17T19:54:45.928Z,101096.80
2023-03-17T19:59:45.569Z,101097.20
2023-03-17T20:04:44.798Z,101095.20
2023-03-17T20:09:46.390Z,101096.80
2023-03-17T20:14:46.239Z,101096.20
2023-03-17T20:19:46.348Z,101087.60
2023-03-17T20:24:45.967Z,101085.80
2023-03-17T20:29:46.539Z,101087.00
2023-03-17T20:34:47.395Z,101074.40
2023-03-17T20:39:46.888Z,101079.40
2023-03-17T20:44:52.785Z,101073.40
2023-03-17T20:49:53.318Z,101078.00
2023-03-17T20:54:52.563Z,101065.40
2023-03-17T20:59:51.509Z,101069.00
2023-03-17T21:04:51.502Z,101067.20
2023-03-17T21:09:52.048Z,101065.20
2023-03-17T21:14:52.250Z,101061.40
2023-03-17T21:19:51.204Z,101060.60
2023-03-17T21:24:50.144Z,101066.40
2023-03-17T21:29:50.271Z,101061.20
2023-03-17T21:34:50.781Z,101053.40
2023-03-17T21:39:50.670Z,101051.80
2023-03-17T21:44:52.122Z,101055.40
2023-03-17T21:49:51.502Z,101061.40
2023-03-17T21:54:50.615Z,101065.00
2023-03-17T21:59:52.350Z,101068.00
2023-03-17T22:04:52.486Z,101070.80
2023-03-17T22:09:54.831Z,101075.40
2023-03-17T22:14:57.277Z,101080.40
2023-03-17T22:19:58.212Z,101077.20
2023-03-17T22:24:58.199Z,101071.80
2023-03-17T22:29:57.906Z,101061.60
2023-03-17T22:34:57.499Z,101059.60
2023-03-17T22:40:02.602Z,101060.40
2023-03-17T22:45:02.475Z,101055.00
2023-03-17T22:50:02.281Z,101057.80
2023-03-17T22:55:01.542Z,101057.40
2023-03-17T23:00:01.123Z,101056.00
2023-03-17T23:05:00.957Z,101048.20
2023-03-17T23:10:00.748Z,101043.60
2023-03-17T23:15:00.642Z,101047.00
2023-03-17T23:20:02.916Z,101034.20
2023-03-17T23:25:03.841Z,101036.00
2023-03-17T23:30:03.783Z,101033.80
2023-03-17T23:35:03.386Z,101025.20
2023-03-17T23:40:02.800Z,101018.80
2023-03-17T23:45:02.282Z,101023.00
2023-03-17T23:50:02.231Z,101013.60
2023-03-17T23:55:02.172Z,101010.80
